EZS1517 LSGG-EHAM
Flight info
| Callsign | EZS1517 |
|---|---|
| Flight time | 1h 6m |
| Altitude | 38000 |
| Route | ARBOS DCT PENDU DCT IXILU DCT GIVOR DCT SORAL DCT IBERA DCT BUB Y28 HELEN |
| Aircraft | A320/M-SDE3FGHIRWY/LB1 |
Departure
| Time | 2026-05-04 18:55 |
|---|---|
| Airport | Geneva International Airport (LSGG) |
Arrival
| Time | 2026-05-04 20:01 |
|---|---|
| Airport | Amsterdam Airport Schiphol (EHAM) |
| Time | Latitude | Longitude | Altitude | Speed | Heading |
|---|---|---|---|---|---|
| 2026-05-04 18:13 | 46.23283 | 6.10608 | 1401 ft | 0 kts | 180° |
| 2026-05-04 18:47 | 46.23265 | 6.10601 | 1400 ft | 1 kts | 216° |
| 2026-05-04 18:47 | 46.23263 | 6.10585 | 1399 ft | 2 kts | 262° |
| 2026-05-04 18:47 | 46.23273 | 6.10554 | 1405 ft | 0 kts | 298° |
| 2026-05-04 18:48 | 46.23281 | 6.10538 | 1399 ft | 8 kts | 307° |
| 2026-05-04 18:48 | 46.23334 | 6.10547 | 1398 ft | 8 kts | 40° |
| 2026-05-04 18:48 | 46.23346 | 6.10565 | 1403 ft | 0 kts | 45° |
| 2026-05-04 18:48 | 46.23381 | 6.10612 | 1407 ft | 16 kts | 41° |
| 2026-05-04 18:49 | 46.23469 | 6.10734 | 1399 ft | 19 kts | 48° |
| 2026-05-04 18:49 | 46.23564 | 6.10878 | 1400 ft | 20 kts | 44° |
| 2026-05-04 18:49 | 46.23667 | 6.11023 | 1399 ft | 21 kts | 46° |
| 2026-05-04 18:49 | 46.23768 | 6.11177 | 1406 ft | 21 kts | 46° |
| 2026-05-04 18:50 | 46.23870 | 6.11325 | 1406 ft | 21 kts | 45° |
| 2026-05-04 18:50 | 46.23975 | 6.11479 | 1399 ft | 23 kts | 45° |
| 2026-05-04 18:50 | 46.24087 | 6.11639 | 1398 ft | 20 kts | 45° |
| 2026-05-04 18:50 | 46.24184 | 6.11783 | 1396 ft | 17 kts | 46° |
| 2026-05-04 18:51 | 46.24252 | 6.11883 | 1396 ft | 9 kts | 47° |
| 2026-05-04 18:51 | 46.24293 | 6.11940 | 1405 ft | 7 kts | 33° |
| 2026-05-04 18:51 | 46.24328 | 6.11936 | 1399 ft | 4 kts | 332° |
| 2026-05-04 18:51 | 46.24338 | 6.11920 | 1404 ft | 2 kts | 303° |
| 2026-05-04 18:52 | 46.24340 | 6.11876 | 1400 ft | 4 kts | 262° |
| 2026-05-04 18:52 | 46.24340 | 6.11875 | 1400 ft | 0 kts | 262° |
| 2026-05-04 18:53 | 46.24338 | 6.11861 | 1402 ft | 8 kts | 259° |
| 2026-05-04 18:53 | 46.24323 | 6.11764 | 1395 ft | 10 kts | 256° |
| 2026-05-04 18:54 | 46.24299 | 6.11657 | 1402 ft | 13 kts | 249° |
| 2026-05-04 18:54 | 46.24249 | 6.11546 | 1399 ft | 13 kts | 228° |
| 2026-05-04 18:54 | 46.24137 | 6.11380 | 1404 ft | 52 kts | 226° |
| 2026-05-04 18:54 | 46.23673 | 6.10700 | 1399 ft | 135 kts | 225° |
| 2026-05-04 18:55 | 46.22894 | 6.09544 | 1744 ft | 170 kts | 226° |
| 2026-05-04 18:55 | 46.21199 | 6.07053 | 3310 ft | 185 kts | 224° |
| 2026-05-04 18:55 | 46.20239 | 6.05654 | 3585 ft | 207 kts | 224° |
| 2026-05-04 18:56 | 46.19162 | 6.04087 | 3876 ft | 233 kts | 224° |
| 2026-05-04 18:56 | 46.17967 | 6.02346 | 4335 ft | 254 kts | 224° |
| 2026-05-04 18:56 | 46.16711 | 6.00515 | 5207 ft | 258 kts | 224° |
| 2026-05-04 18:56 | 46.15446 | 5.98653 | 6170 ft | 260 kts | 225° |
| 2026-05-04 18:57 | 46.14194 | 5.96768 | 7111 ft | 261 kts | 226° |
| 2026-05-04 18:57 | 46.13242 | 5.94524 | 7942 ft | 268 kts | 250° |
| 2026-05-04 18:57 | 46.13036 | 5.91824 | 8786 ft | 277 kts | 274° |
| 2026-05-04 18:57 | 46.13620 | 5.89219 | 9600 ft | 286 kts | 298° |
| 2026-05-04 18:58 | 46.14989 | 5.87072 | 10404 ft | 295 kts | 323° |
| 2026-05-04 18:58 | 46.16903 | 5.85951 | 11118 ft | 307 kts | 346° |
| 2026-05-04 18:58 | 46.19097 | 5.85369 | 11388 ft | 332 kts | 348° |
| 2026-05-04 18:58 | 46.21439 | 5.84821 | 11830 ft | 346 kts | 349° |
| 2026-05-04 18:59 | 46.23836 | 5.84286 | 12571 ft | 351 kts | 349° |
| 2026-05-04 18:59 | 46.26260 | 5.83747 | 13361 ft | 354 kts | 349° |
| 2026-05-04 18:59 | 46.28703 | 5.83191 | 14056 ft | 358 kts | 348° |
| 2026-05-04 18:59 | 46.31175 | 5.82614 | 14678 ft | 362 kts | 348° |
| 2026-05-04 19:00 | 46.32856 | 5.82213 | 15098 ft | 364 kts | 349° |
| 2026-05-04 19:00 | 46.35368 | 5.81607 | 15692 ft | 369 kts | 348° |
| 2026-05-04 19:00 | 46.37920 | 5.80989 | 16304 ft | 373 kts | 348° |
| 2026-05-04 19:00 | 46.40471 | 5.80207 | 16905 ft | 375 kts | 340° |
| 2026-05-04 19:01 | 46.42892 | 5.78776 | 17485 ft | 376 kts | 328° |
| 2026-05-04 19:01 | 46.45179 | 5.76933 | 18115 ft | 378 kts | 327° |
| 2026-05-04 19:01 | 46.48400 | 5.74915 | 18790 ft | 391 kts | 344° |
| 2026-05-04 19:01 | 46.50212 | 5.74583 | 19098 ft | 398 kts | 357° |
| 2026-05-04 19:02 | 46.52976 | 5.75107 | 19581 ft | 406 kts | 11° |
| 2026-05-04 19:02 | 46.55743 | 5.76034 | 20080 ft | 410 kts | 12° |
| 2026-05-04 19:02 | 46.58530 | 5.76986 | 20580 ft | 414 kts | 12° |
| 2026-05-04 19:02 | 46.61347 | 5.77956 | 21066 ft | 418 kts | 12° |
| 2026-05-04 19:03 | 46.64191 | 5.78939 | 21543 ft | 421 kts | 12° |
| 2026-05-04 19:03 | 46.67057 | 5.79925 | 22010 ft | 425 kts | 12° |
| 2026-05-04 19:03 | 46.69963 | 5.80917 | 22486 ft | 429 kts | 12° |
| 2026-05-04 19:03 | 46.72882 | 5.81912 | 22957 ft | 433 kts | 12° |
| 2026-05-04 19:04 | 46.75824 | 5.82915 | 23407 ft | 437 kts | 12° |
| 2026-05-04 19:04 | 46.78802 | 5.83929 | 23805 ft | 440 kts | 12° |
| 2026-05-04 19:04 | 46.81796 | 5.84947 | 24200 ft | 443 kts | 12° |
| 2026-05-04 19:04 | 46.84812 | 5.85972 | 24556 ft | 447 kts | 12° |
| 2026-05-04 19:05 | 46.87848 | 5.87010 | 24931 ft | 450 kts | 12° |
| 2026-05-04 19:05 | 46.90918 | 5.88062 | 25312 ft | 453 kts | 12° |
| 2026-05-04 19:05 | 46.93957 | 5.89105 | 25691 ft | 455 kts | 12° |
| 2026-05-04 19:05 | 46.97057 | 5.90168 | 26077 ft | 457 kts | 12° |
| 2026-05-04 19:06 | 47.00165 | 5.91236 | 26469 ft | 460 kts | 12° |
| 2026-05-04 19:06 | 47.03285 | 5.92309 | 26847 ft | 462 kts | 12° |
| 2026-05-04 19:06 | 47.06427 | 5.93391 | 27190 ft | 465 kts | 12° |
| 2026-05-04 19:06 | 47.09583 | 5.94481 | 27552 ft | 467 kts | 12° |
| 2026-05-04 19:07 | 47.12761 | 5.95578 | 27910 ft | 469 kts | 12° |
| 2026-05-04 19:07 | 47.15944 | 5.96677 | 28267 ft | 472 kts | 12° |
| 2026-05-04 19:07 | 47.19144 | 5.97786 | 28630 ft | 474 kts | 12° |
| 2026-05-04 19:07 | 47.22362 | 5.98903 | 28986 ft | 476 kts | 12° |
| 2026-05-04 19:08 | 47.25596 | 6.00028 | 29321 ft | 479 kts | 12° |
| 2026-05-04 19:08 | 47.28809 | 6.01145 | 29649 ft | 481 kts | 12° |
| 2026-05-04 19:08 | 47.32072 | 6.02280 | 29970 ft | 483 kts | 12° |
| 2026-05-04 19:08 | 47.35386 | 6.03143 | 30242 ft | 484 kts | 4° |
| 2026-05-04 19:09 | 47.38753 | 6.03361 | 30504 ft | 484 kts | 359° |
| 2026-05-04 19:09 | 47.42119 | 6.03429 | 30773 ft | 485 kts | 358° |
| 2026-05-04 19:09 | 47.45505 | 6.03525 | 31038 ft | 487 kts | 2° |
| 2026-05-04 19:09 | 47.48859 | 6.04274 | 31298 ft | 490 kts | 9° |
| 2026-05-04 19:10 | 47.52204 | 6.05237 | 31628 ft | 490 kts | 10° |
| 2026-05-04 19:10 | 47.55548 | 6.06213 | 32020 ft | 488 kts | 10° |
| 2026-05-04 19:10 | 47.58880 | 6.07193 | 32410 ft | 487 kts | 10° |
| 2026-05-04 19:10 | 47.62199 | 6.08170 | 32792 ft | 485 kts | 9° |
| 2026-05-04 19:11 | 47.65506 | 6.09145 | 33167 ft | 484 kts | 10° |
| 2026-05-04 19:11 | 47.68810 | 6.10122 | 33528 ft | 484 kts | 10° |
| 2026-05-04 19:11 | 47.72104 | 6.11095 | 33899 ft | 483 kts | 9° |
| 2026-05-04 19:11 | 47.75396 | 6.12061 | 34237 ft | 481 kts | 9° |
| 2026-05-04 19:12 | 47.78686 | 6.13025 | 34543 ft | 480 kts | 9° |
| 2026-05-04 19:12 | 47.85195 | 6.14938 | 35165 ft | 478 kts | 9° |
| 2026-05-04 19:12 | 47.88450 | 6.15905 | 35454 ft | 477 kts | 9° |
| 2026-05-04 19:13 | 47.91712 | 6.16875 | 35736 ft | 476 kts | 9° |
| 2026-05-04 19:13 | 47.94955 | 6.17838 | 36009 ft | 475 kts | 9° |
| 2026-05-04 19:13 | 47.98197 | 6.18799 | 36271 ft | 474 kts | 9° |
| 2026-05-04 19:13 | 48.01427 | 6.19755 | 36534 ft | 473 kts | 9° |
| 2026-05-04 19:14 | 48.04659 | 6.20713 | 36788 ft | 473 kts | 9° |
| 2026-05-04 19:14 | 48.07879 | 6.21667 | 37050 ft | 471 kts | 9° |
| 2026-05-04 19:14 | 48.11090 | 6.22623 | 37312 ft | 470 kts | 9° |
| 2026-05-04 19:14 | 48.14293 | 6.23582 | 37555 ft | 469 kts | 9° |
| 2026-05-04 19:15 | 48.17500 | 6.24545 | 37782 ft | 468 kts | 9° |
| 2026-05-04 19:15 | 48.20651 | 6.25489 | 37973 ft | 468 kts | 9° |
| 2026-05-04 19:15 | 48.23844 | 6.26444 | 38006 ft | 468 kts | 9° |
| 2026-05-04 19:16 | 48.30232 | 6.28228 | 38000 ft | 464 kts | 1° |
| 2026-05-04 19:16 | 48.36658 | 6.28284 | 37998 ft | 462 kts | 357° |
| 2026-05-04 19:17 | 48.43086 | 6.28243 | 38012 ft | 462 kts | 357° |
| 2026-05-04 19:17 | 48.49523 | 6.28189 | 38000 ft | 462 kts | 357° |
| 2026-05-04 19:18 | 48.55968 | 6.28143 | 38008 ft | 462 kts | 357° |
| 2026-05-04 19:18 | 48.62416 | 6.28118 | 38001 ft | 462 kts | 357° |
| 2026-05-04 19:19 | 48.68802 | 6.28080 | 38008 ft | 462 kts | 357° |
| 2026-05-04 19:19 | 48.75252 | 6.28023 | 38016 ft | 462 kts | 357° |
| 2026-05-04 19:20 | 48.81701 | 6.27970 | 37995 ft | 462 kts | 357° |
| 2026-05-04 19:20 | 48.88133 | 6.27929 | 38010 ft | 462 kts | 357° |
| 2026-05-04 19:21 | 48.94570 | 6.27886 | 38000 ft | 463 kts | 357° |
| 2026-05-04 19:21 | 49.01005 | 6.27840 | 38001 ft | 463 kts | 357° |
| 2026-05-04 19:22 | 49.07450 | 6.27804 | 38003 ft | 463 kts | 357° |
| 2026-05-04 19:22 | 49.13900 | 6.27769 | 38007 ft | 463 kts | 358° |
| 2026-05-04 19:23 | 49.20348 | 6.27722 | 37994 ft | 464 kts | 357° |
| 2026-05-04 19:23 | 49.26800 | 6.27671 | 37986 ft | 464 kts | 357° |
| 2026-05-04 19:24 | 49.33222 | 6.27621 | 37983 ft | 464 kts | 357° |
| 2026-05-04 19:24 | 49.39680 | 6.27572 | 37980 ft | 464 kts | 358° |
| 2026-05-04 19:25 | 49.46147 | 6.27425 | 37977 ft | 463 kts | 352° |
| 2026-05-04 19:25 | 49.49298 | 6.26564 | 37993 ft | 459 kts | 341° |
| 2026-05-04 19:25 | 49.52284 | 6.24883 | 37971 ft | 455 kts | 330° |
| 2026-05-04 19:26 | 49.57481 | 6.19521 | 37975 ft | 449 kts | 318° |
| 2026-05-04 19:26 | 49.62411 | 6.13580 | 37975 ft | 450 kts | 318° |
| 2026-05-04 19:27 | 49.67347 | 6.07635 | 37975 ft | 450 kts | 318° |
| 2026-05-04 19:27 | 49.72271 | 6.01673 | 37976 ft | 450 kts | 318° |
| 2026-05-04 19:28 | 49.77181 | 5.95686 | 37975 ft | 450 kts | 318° |
| 2026-05-04 19:28 | 49.82065 | 5.89734 | 37990 ft | 450 kts | 318° |
| 2026-05-04 19:29 | 49.86982 | 5.83737 | 37975 ft | 450 kts | 318° |
| 2026-05-04 19:29 | 49.91899 | 5.77706 | 37978 ft | 450 kts | 318° |
| 2026-05-04 19:30 | 49.96805 | 5.71684 | 37980 ft | 450 kts | 318° |
| 2026-05-04 19:30 | 50.01720 | 5.65639 | 37980 ft | 450 kts | 318° |
| 2026-05-04 19:31 | 50.06631 | 5.59585 | 37988 ft | 450 kts | 317° |
| 2026-05-04 19:31 | 50.11500 | 5.53550 | 37980 ft | 450 kts | 317° |
| 2026-05-04 19:32 | 50.16411 | 5.47461 | 37981 ft | 450 kts | 318° |
| 2026-05-04 19:32 | 50.21314 | 5.41367 | 37975 ft | 451 kts | 318° |
| 2026-05-04 19:33 | 50.26216 | 5.35255 | 37696 ft | 451 kts | 318° |
| 2026-05-04 19:33 | 50.28681 | 5.32178 | 37420 ft | 451 kts | 317° |
| 2026-05-04 19:33 | 50.31127 | 5.29117 | 37161 ft | 451 kts | 317° |
| 2026-05-04 19:33 | 50.33579 | 5.26045 | 36892 ft | 451 kts | 317° |
| 2026-05-04 19:34 | 50.36031 | 5.22968 | 36627 ft | 452 kts | 317° |
| 2026-05-04 19:34 | 50.38472 | 5.19893 | 36365 ft | 452 kts | 317° |
| 2026-05-04 19:34 | 50.40903 | 5.16826 | 36115 ft | 452 kts | 317° |
| 2026-05-04 19:34 | 50.43355 | 5.13732 | 35873 ft | 453 kts | 317° |
| 2026-05-04 19:35 | 50.45814 | 5.10627 | 35608 ft | 453 kts | 316° |
| 2026-05-04 19:35 | 50.48267 | 5.07531 | 35377 ft | 452 kts | 317° |
| 2026-05-04 19:35 | 50.50706 | 5.04449 | 35137 ft | 450 kts | 317° |
| 2026-05-04 19:35 | 50.53137 | 5.01367 | 34889 ft | 448 kts | 317° |
| 2026-05-04 19:36 | 50.55553 | 4.98296 | 34648 ft | 446 kts | 316° |
| 2026-05-04 19:36 | 50.57960 | 4.95239 | 34405 ft | 444 kts | 316° |
| 2026-05-04 19:36 | 50.60362 | 4.92184 | 34173 ft | 442 kts | 316° |
| 2026-05-04 19:36 | 50.62750 | 4.89144 | 33938 ft | 440 kts | 316° |
| 2026-05-04 19:37 | 50.65124 | 4.86120 | 33656 ft | 439 kts | 316° |
| 2026-05-04 19:37 | 50.67491 | 4.83094 | 33380 ft | 436 kts | 316° |
| 2026-05-04 19:37 | 50.69844 | 4.80085 | 33108 ft | 434 kts | 316° |
| 2026-05-04 19:37 | 50.72186 | 4.77090 | 32836 ft | 432 kts | 316° |
| 2026-05-04 19:38 | 50.74506 | 4.74115 | 32566 ft | 430 kts | 316° |
| 2026-05-04 19:38 | 50.76821 | 4.71141 | 32301 ft | 428 kts | 316° |
| 2026-05-04 19:38 | 50.79107 | 4.68203 | 32054 ft | 426 kts | 317° |
| 2026-05-04 19:38 | 50.81362 | 4.65300 | 31804 ft | 422 kts | 318° |
| 2026-05-04 19:39 | 50.83662 | 4.62331 | 31542 ft | 419 kts | 318° |
| 2026-05-04 19:39 | 50.85912 | 4.59419 | 31286 ft | 417 kts | 318° |
| 2026-05-04 19:39 | 50.88151 | 4.56507 | 31026 ft | 414 kts | 316° |
| 2026-05-04 19:39 | 50.90148 | 4.53351 | 30786 ft | 409 kts | 308° |
| 2026-05-04 19:40 | 50.91843 | 4.49684 | 30540 ft | 405 kts | 299° |
| 2026-05-04 19:40 | 50.93284 | 4.45933 | 30290 ft | 404 kts | 299° |
| 2026-05-04 19:40 | 50.94750 | 4.42131 | 30040 ft | 402 kts | 300° |
| 2026-05-04 19:40 | 50.96209 | 4.38355 | 29757 ft | 401 kts | 300° |
| 2026-05-04 19:41 | 50.97660 | 4.34593 | 29472 ft | 399 kts | 300° |
| 2026-05-04 19:41 | 50.99108 | 4.30835 | 29183 ft | 398 kts | 300° |
| 2026-05-04 19:41 | 51.00538 | 4.27111 | 28891 ft | 396 kts | 300° |
| 2026-05-04 19:41 | 51.01968 | 4.23379 | 28630 ft | 395 kts | 300° |
| 2026-05-04 19:42 | 51.03396 | 4.19648 | 28361 ft | 393 kts | 300° |
| 2026-05-04 19:42 | 51.04813 | 4.15944 | 28083 ft | 392 kts | 300° |
| 2026-05-04 19:42 | 51.06222 | 4.12249 | 27814 ft | 391 kts | 300° |
| 2026-05-04 19:42 | 51.07632 | 4.08552 | 27548 ft | 389 kts | 300° |
| 2026-05-04 19:43 | 51.09120 | 4.04995 | 27227 ft | 385 kts | 307° |
| 2026-05-04 19:43 | 51.10957 | 4.01925 | 26777 ft | 382 kts | 318° |
| 2026-05-04 19:43 | 51.13071 | 3.99362 | 26327 ft | 379 kts | 323° |
| 2026-05-04 19:43 | 51.15172 | 3.96904 | 25883 ft | 376 kts | 322° |
| 2026-05-04 19:44 | 51.17272 | 3.94425 | 25412 ft | 375 kts | 322° |
| 2026-05-04 19:44 | 51.19385 | 3.91920 | 24942 ft | 373 kts | 322° |
| 2026-05-04 19:44 | 51.21498 | 3.89611 | 24455 ft | 372 kts | 330° |
| 2026-05-04 19:44 | 51.23863 | 3.87932 | 23968 ft | 372 kts | 342° |
| 2026-05-04 19:45 | 51.26386 | 3.87021 | 23469 ft | 373 kts | 354° |
| 2026-05-04 19:45 | 51.28977 | 3.86839 | 22950 ft | 371 kts | 360° |
| 2026-05-04 19:45 | 51.31561 | 3.86787 | 22452 ft | 370 kts | 359° |
| 2026-05-04 19:45 | 51.34112 | 3.86728 | 21976 ft | 368 kts | 359° |
| 2026-05-04 19:46 | 51.36686 | 3.86665 | 21491 ft | 366 kts | 359° |
| 2026-05-04 19:46 | 51.39232 | 3.86605 | 21013 ft | 365 kts | 359° |
| 2026-05-04 19:46 | 51.41757 | 3.86545 | 20537 ft | 363 kts | 359° |
| 2026-05-04 19:46 | 51.43428 | 3.86504 | 20223 ft | 362 kts | 359° |
| 2026-05-04 19:47 | 51.45948 | 3.86443 | 19750 ft | 360 kts | 359° |
| 2026-05-04 19:47 | 51.49240 | 3.86362 | 19126 ft | 351 kts | 359° |
| 2026-05-04 19:47 | 51.51636 | 3.86303 | 18680 ft | 340 kts | 359° |
| 2026-05-04 19:47 | 51.53989 | 3.86248 | 18234 ft | 336 kts | 359° |
| 2026-05-04 19:48 | 51.55562 | 3.86211 | 17900 ft | 334 kts | 359° |
| 2026-05-04 19:48 | 51.57882 | 3.86156 | 17464 ft | 333 kts | 359° |
| 2026-05-04 19:48 | 51.60196 | 3.86100 | 17030 ft | 332 kts | 359° |
| 2026-05-04 19:48 | 51.62501 | 3.86040 | 16604 ft | 331 kts | 359° |
| 2026-05-04 19:49 | 51.64777 | 3.85984 | 16180 ft | 330 kts | 359° |
| 2026-05-04 19:49 | 51.67080 | 3.85931 | 15743 ft | 330 kts | 359° |
| 2026-05-04 19:49 | 51.69374 | 3.85928 | 15311 ft | 330 kts | 4° |
| 2026-05-04 19:49 | 51.71620 | 3.86609 | 14886 ft | 329 kts | 18° |
| 2026-05-04 19:50 | 51.73698 | 3.88153 | 14448 ft | 329 kts | 32° |
| 2026-05-04 19:50 | 51.75494 | 3.90435 | 14013 ft | 329 kts | 41° |
| 2026-05-04 19:50 | 51.77200 | 3.92906 | 13569 ft | 329 kts | 41° |
| 2026-05-04 19:50 | 51.78904 | 3.95366 | 13123 ft | 328 kts | 41° |
| 2026-05-04 19:51 | 51.80597 | 3.97807 | 12700 ft | 326 kts | 41° |
| 2026-05-04 19:51 | 51.82282 | 4.00238 | 12275 ft | 324 kts | 41° |
| 2026-05-04 19:51 | 51.83957 | 4.02657 | 11840 ft | 322 kts | 41° |
| 2026-05-04 19:51 | 51.85614 | 4.05049 | 11610 ft | 315 kts | 41° |
| 2026-05-04 19:52 | 51.87219 | 4.07370 | 11458 ft | 304 kts | 41° |
| 2026-05-04 19:52 | 51.88782 | 4.09639 | 11182 ft | 299 kts | 41° |
| 2026-05-04 19:52 | 51.90316 | 4.11868 | 10591 ft | 295 kts | 41° |
| 2026-05-04 19:52 | 51.91841 | 4.14084 | 9974 ft | 293 kts | 41° |
| 2026-05-04 19:53 | 51.93337 | 4.16258 | 9828 ft | 289 kts | 41° |
| 2026-05-04 19:53 | 51.94842 | 4.18437 | 9487 ft | 289 kts | 41° |
| 2026-05-04 19:53 | 51.96335 | 4.20599 | 8977 ft | 286 kts | 41° |
| 2026-05-04 19:53 | 51.97802 | 4.22737 | 8547 ft | 284 kts | 41° |
| 2026-05-04 19:54 | 51.99250 | 4.24916 | 8131 ft | 283 kts | 43° |
| 2026-05-04 19:54 | 52.00682 | 4.27095 | 7732 ft | 281 kts | 42° |
| 2026-05-04 19:54 | 52.02100 | 4.29261 | 7331 ft | 279 kts | 43° |
| 2026-05-04 19:54 | 52.03511 | 4.31410 | 6922 ft | 277 kts | 43° |
| 2026-05-04 19:55 | 52.04909 | 4.33547 | 6530 ft | 274 kts | 42° |
| 2026-05-04 19:55 | 52.06289 | 4.35659 | 6129 ft | 272 kts | 43° |
| 2026-05-04 19:55 | 52.07668 | 4.37765 | 5716 ft | 270 kts | 43° |
| 2026-05-04 19:55 | 52.09024 | 4.39849 | 5308 ft | 267 kts | 42° |
| 2026-05-04 19:56 | 52.10414 | 4.41774 | 4906 ft | 265 kts | 35° |
| 2026-05-04 19:56 | 52.11928 | 4.43451 | 4516 ft | 261 kts | 33° |
| 2026-05-04 19:56 | 52.13404 | 4.45034 | 4099 ft | 248 kts | 33° |
| 2026-05-04 19:56 | 52.14816 | 4.46544 | 3713 ft | 238 kts | 33° |
| 2026-05-04 19:57 | 52.16143 | 4.48031 | 3462 ft | 227 kts | 39° |
| 2026-05-04 19:57 | 52.17319 | 4.49730 | 3210 ft | 224 kts | 42° |
| 2026-05-04 19:57 | 52.18456 | 4.51464 | 2961 ft | 223 kts | 43° |
| 2026-05-04 19:57 | 52.19588 | 4.53196 | 2711 ft | 223 kts | 43° |
| 2026-05-04 19:58 | 52.20716 | 4.54917 | 2452 ft | 222 kts | 43° |
| 2026-05-04 19:58 | 52.21836 | 4.56626 | 2195 ft | 220 kts | 42° |
| 2026-05-04 19:58 | 52.22918 | 4.58338 | 2039 ft | 212 kts | 49° |
| 2026-05-04 19:58 | 52.23745 | 4.60273 | 1894 ft | 205 kts | 57° |
| 2026-05-04 19:59 | 52.24469 | 4.62186 | 1654 ft | 192 kts | 56° |
| 2026-05-04 19:59 | 52.25158 | 4.63985 | 1421 ft | 181 kts | 55° |
| 2026-05-04 19:59 | 52.25796 | 4.65643 | 1174 ft | 168 kts | 56° |
| 2026-05-04 19:59 | 52.26393 | 4.67191 | 955 ft | 154 kts | 56° |
| 2026-05-04 20:00 | 52.26942 | 4.68617 | 739 ft | 145 kts | 54° |
| 2026-05-04 20:00 | 52.27465 | 4.69986 | 550 ft | 138 kts | 56° |
| 2026-05-04 20:00 | 52.27977 | 4.71336 | 367 ft | 139 kts | 55° |
| 2026-05-04 20:00 | 52.28492 | 4.72660 | 182 ft | 137 kts | 54° |
| 2026-05-04 20:01 | 52.29006 | 4.73976 | 28 ft | 136 kts | 54° |
| 2026-05-04 20:01 | 52.29470 | 4.75176 | -5 ft | 103 kts | 58° |
| 2026-05-04 20:01 | 52.29759 | 4.75927 | -5 ft | 53 kts | 57° |
| 2026-05-04 20:01 | 52.29912 | 4.76331 | -7 ft | 38 kts | 57° |
| 2026-05-04 20:02 | 52.30050 | 4.76548 | -3 ft | 22 kts | 34° |
| 2026-05-04 20:02 | 52.30145 | 4.76645 | -2 ft | 13 kts | 30° |
| 2026-05-04 20:02 | 52.30229 | 4.76713 | -2 ft | 14 kts | 28° |
| 2026-05-04 20:02 | 52.30309 | 4.76824 | -3 ft | 16 kts | 54° |
| 2026-05-04 20:03 | 52.30372 | 4.76984 | -3 ft | 18 kts | 56° |
| 2026-05-04 20:03 | 52.30439 | 4.77151 | -3 ft | 16 kts | 57° |
| 2026-05-04 20:03 | 52.30467 | 4.77220 | -3 ft | 1 kts | 57° |
| 2026-05-04 20:03 | 52.30484 | 4.77268 | -3 ft | 11 kts | 61° |
| 2026-05-04 20:04 | 52.30532 | 4.77401 | -3 ft | 15 kts | 58° |
| 2026-05-04 20:04 | 52.30582 | 4.77519 | -2 ft | 12 kts | 53° |
| 2026-05-04 20:04 | 52.30658 | 4.77586 | -2 ft | 13 kts | 12° |
| 2026-05-04 20:04 | 52.30769 | 4.77598 | -2 ft | 20 kts | 7° |
| 2026-05-04 20:05 | 52.30915 | 4.77615 | -2 ft | 21 kts | 2° |
| 2026-05-04 20:05 | 52.31039 | 4.77623 | -2 ft | 18 kts | 2° |
| 2026-05-04 20:05 | 52.31161 | 4.77634 | -2 ft | 18 kts | 4° |
| 2026-05-04 20:05 | 52.31285 | 4.77648 | -2 ft | 17 kts | 4° |
| 2026-05-04 20:06 | 52.31404 | 4.77656 | -2 ft | 18 kts | 356° |
| 2026-05-04 20:06 | 52.31510 | 4.77564 | -2 ft | 18 kts | 319° |
| 2026-05-04 20:06 | 52.31577 | 4.77396 | -3 ft | 18 kts | 280° |
| 2026-05-04 20:06 | 52.31572 | 4.77189 | -3 ft | 18 kts | 266° |
| 2026-05-04 20:07 | 52.31566 | 4.76994 | -3 ft | 17 kts | 267° |
| 2026-05-04 20:07 | 52.31560 | 4.76806 | -3 ft | 16 kts | 266° |
| 2026-05-04 20:07 | 52.31554 | 4.76631 | -2 ft | 15 kts | 267° |
| 2026-05-04 20:07 | 52.31549 | 4.76458 | -2 ft | 18 kts | 268° |
| 2026-05-04 20:08 | 52.31544 | 4.76257 | -2 ft | 17 kts | 267° |
| 2026-05-04 20:08 | 52.31537 | 4.76072 | -2 ft | 16 kts | 264° |
| 2026-05-04 20:08 | 52.31527 | 4.75896 | -2 ft | 15 kts | 266° |
| 2026-05-04 20:08 | 52.31525 | 4.75733 | -3 ft | 14 kts | 269° |
| 2026-05-04 20:09 | 52.31519 | 4.75580 | -3 ft | 13 kts | 266° |
| 2026-05-04 20:09 | 52.31493 | 4.75474 | -3 ft | 9 kts | 207° |
| 2026-05-04 20:09 | 52.31424 | 4.75470 | -2 ft | 14 kts | 180° |
| 2026-05-04 20:09 | 52.31325 | 4.75477 | -2 ft | 13 kts | 176° |
| 2026-05-04 20:10 | 52.31262 | 4.75484 | -2 ft | 3 kts | 176° |
| 2026-05-04 20:10 | 52.31240 | 4.75486 | -2 ft | 3 kts | 177° |
| 2026-05-04 20:10 | 52.31238 | 4.75486 | -2 ft | 0 kts | 177° |
| 2026-05-04 20:10 | 52.31199 | 4.75487 | -2 ft | 9 kts | 177° |
| 2026-05-04 20:11 | 52.31141 | 4.75495 | -2 ft | 8 kts | 177° |
| 2026-05-04 20:11 | 52.31101 | 4.75477 | -2 ft | 5 kts | 219° |
| 2026-05-04 20:11 | 52.31081 | 4.75434 | -2 ft | 3 kts | 233° |
| 2026-05-04 20:11 | 52.31066 | 4.75423 | -2 ft | 2 kts | 180° |
| 2026-05-04 20:12 | 52.31049 | 4.75437 | -2 ft | 4 kts | 149° |
| 2026-05-04 20:12 | 52.31035 | 4.75452 | -2 ft | 6 kts | 146° |
| 2026-05-04 20:12 | 52.31025 | 4.75463 | -2 ft | 0 kts | 147° |